createdAt,value
2023-01-19T00:01:39.056Z,5.60
2023-01-19T00:06:41.972Z,5.50
2023-01-19T00:11:45.105Z,5.50
2023-01-19T00:16:48.334Z,5.50
2023-01-19T00:21:51.376Z,5.50
2023-01-19T00:26:54.419Z,5.50
2023-01-19T00:31:57.382Z,5.50
2023-01-19T00:37:03.175Z,5.50
2023-01-19T00:42:25.097Z,5.50
2023-01-19T00:47:27.900Z,5.40
2023-01-19T00:52:31.139Z,5.40
2023-01-19T00:57:34.429Z,5.30
2023-01-19T01:02:38.713Z,5.20
2023-01-19T01:07:44.548Z,5.10
2023-01-19T01:13:20.397Z,5.10
2023-01-19T01:18:12.958Z,5.00
2023-01-19T01:23:15.954Z,4.90
2023-01-19T01:28:18.976Z,4.90
2023-01-19T01:33:41.076Z,4.80
2023-01-19T01:38:45.024Z,4.70
2023-01-19T01:43:58.280Z,4.70
2023-01-19T01:49:04.468Z,4.70
2023-01-19T01:54:37.232Z,4.60
2023-01-19T01:59:45.227Z,4.60
2023-01-19T02:04:55.217Z,4.50
2023-01-19T02:10:16.360Z,4.50
2023-01-19T02:15:20.611Z,4.50
2023-01-19T02:20:27.872Z,4.50
2023-01-19T02:25:31.209Z,4.40
2023-01-19T02:30:37.363Z,4.30
2023-01-19T02:35:41.110Z,4.30
2023-01-19T02:40:46.131Z,4.20
2023-01-19T02:45:50.067Z,4.20
2023-01-19T02:51:04.448Z,4.20
2023-01-19T02:56:43.312Z,4.20
2023-01-19T03:02:40.098Z,4.20
2023-01-19T03:08:30.677Z,4.20
2023-01-19T03:13:45.653Z,4.20
2023-01-19T03:19:03.109Z,4.10
2023-01-19T03:24:08.749Z,4.10
2023-01-19T03:29:15.317Z,4.10
2023-01-19T03:34:23.061Z,4.00
2023-01-19T03:39:27.921Z,4.10
2023-01-19T03:44:37.243Z,4.10
2023-01-19T03:49:44.048Z,4.00
2023-01-19T03:54:47.009Z,3.90
2023-01-19T03:59:50.074Z,3.80
2023-01-19T04:04:53.091Z,3.70
2023-01-19T04:09:56.085Z,3.60
2023-01-19T04:14:58.975Z,3.60
2023-01-19T04:20:02.059Z,3.50
2023-01-19T04:25:06.541Z,3.50
2023-01-19T04:30:10.552Z,3.50
2023-01-19T04:35:13.408Z,3.40
2023-01-19T04:40:17.670Z,3.40
2023-01-19T04:45:20.640Z,3.50
2023-01-19T04:50:23.783Z,3.50
2023-01-19T04:55:26.631Z,3.50
2023-01-19T05:00:29.699Z,3.60
2023-01-19T05:05:33.343Z,3.60
2023-01-19T05:10:36.608Z,3.70
2023-01-19T05:15:39.588Z,3.60
2023-01-19T05:20:43.076Z,3.70
2023-01-19T05:25:46.061Z,3.70
2023-01-19T05:30:52.156Z,3.80
2023-01-19T05:35:56.008Z,3.80
2023-01-19T05:40:59.159Z,3.90
2023-01-19T05:46:05.475Z,3.90
2023-01-19T05:51:09.192Z,4.00
2023-01-19T05:56:12.213Z,4.00
2023-01-19T06:01:15.291Z,4.00
2023-01-19T06:06:18.786Z,4.00
2023-01-19T06:11:22.236Z,4.00
2023-01-19T06:16:25.416Z,4.00
2023-01-19T06:21:29.532Z,4.00
2023-01-19T06:26:32.635Z,4.00
2023-01-19T06:31:36.032Z,4.00
2023-01-19T06:36:39.433Z,4.00
2023-01-19T06:41:42.846Z,4.00
2023-01-19T06:46:45.811Z,4.00
2023-01-19T06:51:48.761Z,4.10
2023-01-19T06:56:52.211Z,4.10
2023-01-19T07:01:56.691Z,4.20
2023-01-19T07:06:59.806Z,4.20
2023-01-19T07:12:02.887Z,4.20
2023-01-19T07:17:06.012Z,4.20
2023-01-19T07:22:09.464Z,4.30
2023-01-19T07:27:12.443Z,4.30
2023-01-19T07:32:15.447Z,4.40
2023-01-19T07:37:18.338Z,4.50
2023-01-19T07:42:21.539Z,4.60
2023-01-19T07:47:24.716Z,4.60
2023-01-19T07:52:27.774Z,4.70
2023-01-19T07:57:31.207Z,4.70
2023-01-19T08:02:36.030Z,4.70
2023-01-19T08:07:39.030Z,4.70
2023-01-19T08:12:42.715Z,4.60
2023-01-19T08:17:45.778Z,4.60
2023-01-19T08:22:49.267Z,4.60
2023-01-19T08:27:55.496Z,4.70
2023-01-19T08:33:04.363Z,4.70
2023-01-19T08:38:09.845Z,4.70
2023-01-19T08:43:16.360Z,4.70
2023-01-19T08:48:24.768Z,4.80
2023-01-19T08:53:27.720Z,4.80
2023-01-19T08:58:30.661Z,4.80
2023-01-19T09:03:33.647Z,4.80
2023-01-19T09:08:36.732Z,4.80
2023-01-19T09:13:41.380Z,4.80
2023-01-19T09:18:46.017Z,4.80
2023-01-19T09:23:49.925Z,4.80
2023-01-19T09:28:53.017Z,4.70
2023-01-19T09:33:56.297Z,4.70
2023-01-19T09:38:59.330Z,4.70
2023-01-19T09:44:02.518Z,4.70
2023-01-19T09:49:31.926Z,4.60
2023-01-19T09:54:56.764Z,4.60
2023-01-19T09:59:59.988Z,4.60
2023-01-19T10:05:26.136Z,4.60
2023-01-19T10:10:32.259Z,4.60
2023-01-19T10:15:59.851Z,4.60
2023-01-19T10:21:14.568Z,4.50
2023-01-19T10:26:26.681Z,4.50
2023-01-19T10:31:29.748Z,4.40
2023-01-19T10:36:40.099Z,4.40
2023-01-19T10:41:49.589Z,4.40
2023-01-19T10:46:55.507Z,4.30
2023-01-19T10:52:00.049Z,4.30
2023-01-19T10:57:10.128Z,4.30
2023-01-19T11:02:17.725Z,4.20
2023-01-19T11:07:26.759Z,4.20
2023-01-19T11:12:31.020Z,4.10
2023-01-19T11:17:34.182Z,4.20
2023-01-19T11:22:37.241Z,4.10
2023-01-19T11:27:52.056Z,4.10
2023-01-19T11:32:56.321Z,4.10
2023-01-19T11:38:23.362Z,4.00
2023-01-19T11:43:43.464Z,4.00
2023-01-19T11:49:08.462Z,4.10
2023-01-19T11:54:25.714Z,4.10
2023-01-19T11:59:28.995Z,4.20
2023-01-19T12:04:39.485Z,4.40
2023-01-19T12:09:46.286Z,4.40
2023-01-19T12:14:57.755Z,4.40
2023-01-19T12:20:25.678Z,4.60
2023-01-19T12:26:05.314Z,4.60
2023-01-19T12:31:09.334Z,4.60
2023-01-19T12:36:30.547Z,4.60
2023-01-19T12:41:41.498Z,4.60
2023-01-19T12:46:52.241Z,4.50
2023-01-19T12:52:13.492Z,4.40
2023-01-19T12:57:58.889Z,4.40
2023-01-19T13:03:18.467Z,4.40
2023-01-19T13:08:29.917Z,4.30
2023-01-19T13:13:44.600Z,4.30
2023-01-19T13:19:05.820Z,4.30
2023-01-19T13:24:17.631Z,4.20
2023-01-19T13:29:34.562Z,4.20
2023-01-19T13:34:49.523Z,4.20
2023-01-19T13:39:54.966Z,4.20
2023-01-19T13:45:15.973Z,4.20
2023-01-19T13:50:35.506Z,4.10
2023-01-19T13:55:38.477Z,3.90
2023-01-19T14:00:46.522Z,3.90
2023-01-19T14:05:54.980Z,3.80
2023-01-19T14:11:00.047Z,3.80
2023-01-19T14:16:14.834Z,3.80
2023-01-19T14:21:18.661Z,3.80
2023-01-19T14:26:40.259Z,3.80
2023-01-19T14:31:47.152Z,3.70
2023-01-19T14:36:51.750Z,3.60
2023-01-19T14:41:57.498Z,3.60
2023-01-19T14:47:01.309Z,3.50
2023-01-19T14:52:31.859Z,3.50
2023-01-19T14:57:36.869Z,3.40
2023-01-19T15:02:39.834Z,3.30
2023-01-19T15:07:45.826Z,3.20
2023-01-19T15:12:51.262Z,3.20
2023-01-19T15:17:56.336Z,3.20
2023-01-19T15:22:59.321Z,3.20
2023-01-19T15:28:04.152Z,3.20
2023-01-19T15:33:14.826Z,3.20
2023-01-19T15:38:17.810Z,3.20
2023-01-19T15:43:21.635Z,3.20
2023-01-19T15:48:25.739Z,3.10
2023-01-19T15:53:28.510Z,3.10
2023-01-19T15:58:31.443Z,3.10
2023-01-19T16:03:34.399Z,3.10
2023-01-19T16:08:38.070Z,3.10
2023-01-19T16:13:44.041Z,3.10
2023-01-19T16:18:47.545Z,3.10
2023-01-19T16:23:51.096Z,3.10
2023-01-19T16:28:58.052Z,3.20
2023-01-19T16:34:01.029Z,3.20
2023-01-19T16:39:15.850Z,3.20
2023-01-19T16:44:18.921Z,3.20
2023-01-19T16:49:28.143Z,3.20
2023-01-19T16:54:32.559Z,3.20
2023-01-19T16:59:35.764Z,3.20
2023-01-19T17:04:38.485Z,3.20
2023-01-19T17:09:41.374Z,3.10
2023-01-19T17:14:47.316Z,3.10
2023-01-19T17:19:50.397Z,3.10
2023-01-19T17:24:53.360Z,3.00
2023-01-19T17:29:56.461Z,3.00
2023-01-19T17:34:59.875Z,3.00
2023-01-19T17:40:03.009Z,3.00
2023-01-19T17:45:06.276Z,3.00
2023-01-19T17:50:10.205Z,3.00
2023-01-19T17:55:13.215Z,3.00
2023-01-19T18:00:17.154Z,2.90
2023-01-19T18:05:20.609Z,2.90
2023-01-19T18:10:23.600Z,2.90
2023-01-19T18:15:26.636Z,2.90
2023-01-19T18:20:31.554Z,2.80
2023-01-19T18:25:34.664Z,2.80
2023-01-19T18:30:37.986Z,2.70
2023-01-19T18:35:41.007Z,2.70
2023-01-19T18:40:43.972Z,2.70
2023-01-19T18:45:48.200Z,2.70
2023-01-19T18:50:51.599Z,2.80
2023-01-19T18:55:57.428Z,2.70
2023-01-19T19:01:01.734Z,2.70
2023-01-19T19:06:04.904Z,2.70
2023-01-19T19:11:08.996Z,2.70
2023-01-19T19:16:13.529Z,2.70
2023-01-19T19:21:18.939Z,2.60
2023-01-19T19:26:23.502Z,2.60
2023-01-19T19:31:28.116Z,2.60
2023-01-19T19:36:33.523Z,2.70
2023-01-19T19:41:38.385Z,2.60
2023-01-19T19:46:41.449Z,2.60
2023-01-19T19:51:44.481Z,2.60
2023-01-19T19:56:50.440Z,2.60
2023-01-19T20:01:54.624Z,2.60
2023-01-19T20:06:59.243Z,2.60
2023-01-19T20:12:02.127Z,2.50
2023-01-19T20:17:05.824Z,2.50
2023-01-19T20:22:09.065Z,2.50
2023-01-19T20:27:11.917Z,2.50
2023-01-19T20:32:14.942Z,2.50
2023-01-19T20:37:17.901Z,2.40
2023-01-19T20:42:20.859Z,2.40
2023-01-19T20:47:23.849Z,2.40
2023-01-19T20:52:26.893Z,2.30
2023-01-19T20:57:29.981Z,2.30
2023-01-19T21:02:33.100Z,2.30
2023-01-19T21:07:36.340Z,2.20
2023-01-19T21:12:39.307Z,2.20
2023-01-19T21:17:43.746Z,2.30
2023-01-19T21:22:48.071Z,2.30
2023-01-19T21:27:51.034Z,2.30
2023-01-19T21:32:55.730Z,2.40
2023-01-19T21:37:59.187Z,2.40
2023-01-19T21:43:02.154Z,2.40
2023-01-19T21:48:05.278Z,2.40
2023-01-19T21:53:11.296Z,2.40
2023-01-19T21:58:14.251Z,2.40
2023-01-19T22:03:17.481Z,2.40
2023-01-19T22:08:20.381Z,2.30
2023-01-19T22:13:23.565Z,2.40
2023-01-19T22:18:26.842Z,2.50
2023-01-19T22:23:29.937Z,2.50
2023-01-19T22:28:33.725Z,2.50
2023-01-19T22:33:37.125Z,2.60
2023-01-19T22:38:40.908Z,2.70
2023-01-19T22:43:45.691Z,2.70
2023-01-19T22:48:49.518Z,2.70
2023-01-19T22:53:52.705Z,2.60
2023-01-19T22:58:56.486Z,2.40
2023-01-19T23:04:01.451Z,2.30
2023-01-19T23:09:12.791Z,2.30
2023-01-19T23:14:19.904Z,2.20
2023-01-19T23:19:22.747Z,2.10
2023-01-19T23:24:25.665Z,2.10
2023-01-19T23:29:28.643Z,2.00
2023-01-19T23:34:31.628Z,1.90
2023-01-19T23:39:35.056Z,2.00
2023-01-19T23:44:37.904Z,2.00
2023-01-19T23:49:40.869Z,2.00
2023-01-19T23:54:45.085Z,2.00
2023-01-19T23:59:47.913Z,2.10
